sensor_id;sensor_type;location;lat;lon;timestamp;temperature;humidity
21944;DHT22;11136;48.778;9.126;2023-05-27T00:01:22;18.70;67.40
21944;DHT22;11136;48.778;9.126;2023-05-27T00:03:48;18.70;67.40
21944;DHT22;11136;48.778;9.126;2023-05-27T00:06:14;18.70;67.40
21944;DHT22;11136;48.778;9.126;2023-05-27T00:08:39;18.60;67.30
21944;DHT22;11136;48.778;9.126;2023-05-27T00:11:05;18.60;67.30
21944;DHT22;11136;48.778;9.126;2023-05-27T00:13:30;18.50;67.30
21944;DHT22;11136;48.778;9.126;2023-05-27T00:15:56;18.50;67.50
21944;DHT22;11136;48.778;9.126;2023-05-27T00:18:22;18.50;67.60
21944;DHT22;11136;48.778;9.126;2023-05-27T00:20:47;18.40;67.60
21944;DHT22;11136;48.778;9.126;2023-05-27T00:23:15;18.40;67.80
21944;DHT22;11136;48.778;9.126;2023-05-27T00:25:40;18.40;67.90
21944;DHT22;11136;48.778;9.126;2023-05-27T00:28:06;18.30;67.80
21944;DHT22;11136;48.778;9.126;2023-05-27T00:30:32;18.30;67.80
21944;DHT22;11136;48.778;9.126;2023-05-27T00:32:58;18.30;67.90
21944;DHT22;11136;48.778;9.126;2023-05-27T00:35:23;18.30;68.00
21944;DHT22;11136;48.778;9.126;2023-05-27T00:37:49;18.30;68.20
21944;DHT22;11136;48.778;9.126;2023-05-27T00:40:19;18.20;68.20
21944;DHT22;11136;48.778;9.126;2023-05-27T00:42:45;18.20;68.50
21944;DHT22;11136;48.778;9.126;2023-05-27T00:45:11;18.20;68.50
21944;DHT22;11136;48.778;9.126;2023-05-27T00:47:37;18.20;68.90
21944;DHT22;11136;48.778;9.126;2023-05-27T00:50:03;18.10;68.40
21944;DHT22;11136;48.778;9.126;2023-05-27T00:52:29;18.10;68.40
21944;DHT22;11136;48.778;9.126;2023-05-27T00:54:55;18.00;68.50
21944;DHT22;11136;48.778;9.126;2023-05-27T00:57:21;18.00;68.70
21944;DHT22;11136;48.778;9.126;2023-05-27T00:59:47;17.90;68.90
21944;DHT22;11136;48.778;9.126;2023-05-27T01:02:13;17.90;69.10
21944;DHT22;11136;48.778;9.126;2023-05-27T01:04:39;17.80;69.30
21944;DHT22;11136;48.778;9.126;2023-05-27T01:07:21;17.80;69.60
21944;DHT22;11136;48.778;9.126;2023-05-27T01:10:04;17.70;69.90
21944;DHT22;11136;48.778;9.126;2023-05-27T01:13:23;17.70;70.00
21944;DHT22;11136;48.778;9.126;2023-05-27T01:15:31;17.70;69.90
21944;DHT22;11136;48.778;9.126;2023-05-27T01:17:59;17.60;69.60
21944;DHT22;11136;48.778;9.126;2023-05-27T01:20:27;17.60;69.50
21944;DHT22;11136;48.778;9.126;2023-05-27T01:22:54;17.50;69.50
21944;DHT22;11136;48.778;9.126;2023-05-27T01:25:23;17.50;69.70
21944;DHT22;11136;48.778;9.126;2023-05-27T01:27:49;17.40;69.80
21944;DHT22;11136;48.778;9.126;2023-05-27T01:30:18;17.40;70.00
21944;DHT22;11136;48.778;9.126;2023-05-27T01:32:52;17.30;70.20
21944;DHT22;11136;48.778;9.126;2023-05-27T01:35:42;17.30;70.30
21944;DHT22;11136;48.778;9.126;2023-05-27T01:38:13;17.30;70.50
21944;DHT22;11136;48.778;9.126;2023-05-27T01:40:40;17.20;70.40
21944;DHT22;11136;48.778;9.126;2023-05-27T01:43:07;17.20;70.50
21944;DHT22;11136;48.778;9.126;2023-05-27T01:45:34;17.20;70.70
21944;DHT22;11136;48.778;9.126;2023-05-27T01:48:00;17.10;70.80
21944;DHT22;11136;48.778;9.126;2023-05-27T01:50:26;17.10;70.80
21944;DHT22;11136;48.778;9.126;2023-05-27T01:52:51;17.10;70.80
21944;DHT22;11136;48.778;9.126;2023-05-27T01:55:17;17.00;70.80
21944;DHT22;11136;48.778;9.126;2023-05-27T01:57:43;16.90;70.80
21944;DHT22;11136;48.778;9.126;2023-05-27T02:00:09;17.10;71.10
21944;DHT22;11136;48.778;9.126;2023-05-27T02:02:35;16.90;71.10
21944;DHT22;11136;48.778;9.126;2023-05-27T02:05:02;16.90;71.20
21944;DHT22;11136;48.778;9.126;2023-05-27T02:07:29;16.80;71.20
21944;DHT22;11136;48.778;9.126;2023-05-27T02:09:55;16.80;71.40
21944;DHT22;11136;48.778;9.126;2023-05-27T02:12:20;16.70;72.20
21944;DHT22;11136;48.778;9.126;2023-05-27T02:14:46;16.70;71.50
21944;DHT22;11136;48.778;9.126;2023-05-27T02:17:13;16.60;71.50
21944;DHT22;11136;48.778;9.126;2023-05-27T02:19:40;16.60;71.80
21944;DHT22;11136;48.778;9.126;2023-05-27T02:22:06;16.50;71.90
21944;DHT22;11136;48.778;9.126;2023-05-27T02:24:32;16.50;72.10
21944;DHT22;11136;48.778;9.126;2023-05-27T02:26:58;16.50;72.30
21944;DHT22;11136;48.778;9.126;2023-05-27T02:29:23;16.50;72.40
21944;DHT22;11136;48.778;9.126;2023-05-27T02:31:49;16.40;72.50
21944;DHT22;11136;48.778;9.126;2023-05-27T02:34:15;16.40;72.50
21944;DHT22;11136;48.778;9.126;2023-05-27T02:36:40;16.30;72.50
21944;DHT22;11136;48.778;9.126;2023-05-27T02:39:06;16.30;72.70
21944;DHT22;11136;48.778;9.126;2023-05-27T02:41:31;16.30;72.90
21944;DHT22;11136;48.778;9.126;2023-05-27T02:43:57;16.20;72.90
21944;DHT22;11136;48.778;9.126;2023-05-27T02:46:22;16.20;73.00
21944;DHT22;11136;48.778;9.126;2023-05-27T02:48:48;16.20;73.10
21944;DHT22;11136;48.778;9.126;2023-05-27T02:51:13;16.20;73.20
21944;DHT22;11136;48.778;9.126;2023-05-27T02:53:39;16.10;73.20
21944;DHT22;11136;48.778;9.126;2023-05-27T02:56:05;16.10;73.40
21944;DHT22;11136;48.778;9.126;2023-05-27T02:58:30;16.10;73.60
21944;DHT22;11136;48.778;9.126;2023-05-27T03:00:56;16.00;73.60
21944;DHT22;11136;48.778;9.126;2023-05-27T03:03:22;15.90;73.70
21944;DHT22;11136;48.778;9.126;2023-05-27T03:05:49;16.00;73.90
21944;DHT22;11136;48.778;9.126;2023-05-27T03:08:15;16.00;74.10
21944;DHT22;11136;48.778;9.126;2023-05-27T03:10:41;15.90;74.20
21944;DHT22;11136;48.778;9.126;2023-05-27T03:13:06;15.90;74.20
21944;DHT22;11136;48.778;9.126;2023-05-27T03:15:32;15.80;74.20
21944;DHT22;11136;48.778;9.126;2023-05-27T03:17:59;15.80;74.40
21944;DHT22;11136;48.778;9.126;2023-05-27T03:20:25;15.80;74.60
21944;DHT22;11136;48.778;9.126;2023-05-27T03:22:51;15.80;74.70
21944;DHT22;11136;48.778;9.126;2023-05-27T03:25:16;15.70;74.80
21944;DHT22;11136;48.778;9.126;2023-05-27T03:27:42;15.70;74.90
21944;DHT22;11136;48.778;9.126;2023-05-27T03:30:08;15.70;75.10
21944;DHT22;11136;48.778;9.126;2023-05-27T03:32:33;15.70;75.10
21944;DHT22;11136;48.778;9.126;2023-05-27T03:34:59;15.60;75.20
21944;DHT22;11136;48.778;9.126;2023-05-27T03:37:25;15.60;75.40
21944;DHT22;11136;48.778;9.126;2023-05-27T03:39:51;15.60;75.60
21944;DHT22;11136;48.778;9.126;2023-05-27T03:42:18;15.60;75.60
21944;DHT22;11136;48.778;9.126;2023-05-27T03:44:43;15.50;75.80
21944;DHT22;11136;48.778;9.126;2023-05-27T03:47:09;15.50;75.90
21944;DHT22;11136;48.778;9.126;2023-05-27T03:49:34;15.50;76.10
21944;DHT22;11136;48.778;9.126;2023-05-27T03:52:00;15.50;76.20
21944;DHT22;11136;48.778;9.126;2023-05-27T03:54:26;15.40;76.20
21944;DHT22;11136;48.778;9.126;2023-05-27T03:56:51;15.40;76.30
21944;DHT22;11136;48.778;9.126;2023-05-27T03:59:17;15.40;76.40
21944;DHT22;11136;48.778;9.126;2023-05-27T04:01:46;15.40;76.60
21944;DHT22;11136;48.778;9.126;2023-05-27T04:04:12;15.30;76.70
21944;DHT22;11136;48.778;9.126;2023-05-27T04:06:38;15.30;76.90
21944;DHT22;11136;48.778;9.126;2023-05-27T04:09:04;15.30;77.10
21944;DHT22;11136;48.778;9.126;2023-05-27T04:11:30;15.30;77.30
21944;DHT22;11136;48.778;9.126;2023-05-27T04:13:56;15.30;77.40
21944;DHT22;11136;48.778;9.126;2023-05-27T04:16:23;15.30;77.70
21944;DHT22;11136;48.778;9.126;2023-05-27T04:18:50;15.30;77.80
21944;DHT22;11136;48.778;9.126;2023-05-27T04:21:17;15.30;77.90
21944;DHT22;11136;48.778;9.126;2023-05-27T04:23:43;15.20;77.90
21944;DHT22;11136;48.778;9.126;2023-05-27T04:26:08;15.30;78.20
21944;DHT22;11136;48.778;9.126;2023-05-27T04:28:34;15.20;78.30
21944;DHT22;11136;48.778;9.126;2023-05-27T04:31:00;15.20;78.50
21944;DHT22;11136;48.778;9.126;2023-05-27T04:33:26;15.20;78.80
21944;DHT22;11136;48.778;9.126;2023-05-27T04:35:52;15.20;79.10
21944;DHT22;11136;48.778;9.126;2023-05-27T04:38:22;15.20;79.30
21944;DHT22;11136;48.778;9.126;2023-05-27T04:40:51;15.20;79.50
21944;DHT22;11136;48.778;9.126;2023-05-27T04:43:20;15.50;79.90
21944;DHT22;11136;48.778;9.126;2023-05-27T04:45:46;15.20;79.70
21944;DHT22;11136;48.778;9.126;2023-05-27T04:48:12;15.20;79.80
21944;DHT22;11136;48.778;9.126;2023-05-27T04:50:37;15.20;80.10
21944;DHT22;11136;48.778;9.126;2023-05-27T04:53:04;15.20;80.30
21944;DHT22;11136;48.778;9.126;2023-05-27T04:55:30;15.30;80.60
21944;DHT22;11136;48.778;9.126;2023-05-27T04:57:55;15.30;80.70
21944;DHT22;11136;48.778;9.126;2023-05-27T05:00:21;15.30;80.60
21944;DHT22;11136;48.778;9.126;2023-05-27T05:03:06;15.30;80.60
21944;DHT22;11136;48.778;9.126;2023-05-27T05:05:32;15.30;80.80
21944;DHT22;11136;48.778;9.126;2023-05-27T05:07:58;15.30;80.90
21944;DHT22;11136;48.778;9.126;2023-05-27T05:10:24;15.40;81.20
21944;DHT22;11136;48.778;9.126;2023-05-27T05:12:50;15.40;81.40
21944;DHT22;11136;48.778;9.126;2023-05-27T05:15:16;15.40;81.40
21944;DHT22;11136;48.778;9.126;2023-05-27T05:17:42;15.40;81.40
21944;DHT22;11136;48.778;9.126;2023-05-27T05:20:07;15.50;81.40
21944;DHT22;11136;48.778;9.126;2023-05-27T05:22:34;15.50;81.40
21944;DHT22;11136;48.778;9.126;2023-05-27T05:25:00;15.50;81.30
21944;DHT22;11136;48.778;9.126;2023-05-27T05:27:27;15.60;81.30
21944;DHT22;11136;48.778;9.126;2023-05-27T05:29:53;15.60;81.20
21944;DHT22;11136;48.778;9.126;2023-05-27T05:32:19;15.60;81.20
21944;DHT22;11136;48.778;9.126;2023-05-27T05:34:44;15.70;81.20
21944;DHT22;11136;48.778;9.126;2023-05-27T05:37:10;15.70;81.20
21944;DHT22;11136;48.778;9.126;2023-05-27T05:39:40;15.70;81.20
21944;DHT22;11136;48.778;9.126;2023-05-27T05:42:06;15.80;81.30
21944;DHT22;11136;48.778;9.126;2023-05-27T05:44:31;15.80;81.30
21944;DHT22;11136;48.778;9.126;2023-05-27T05:46:57;15.80;81.30
21944;DHT22;11136;48.778;9.126;2023-05-27T05:49:22;15.90;81.20
21944;DHT22;11136;48.778;9.126;2023-05-27T05:51:48;15.90;81.20
21944;DHT22;11136;48.778;9.126;2023-05-27T05:54:13;16.00;81.30
21944;DHT22;11136;48.778;9.126;2023-05-27T05:56:39;16.00;81.20
21944;DHT22;11136;48.778;9.126;2023-05-27T05:59:05;16.00;81.20
21944;DHT22;11136;48.778;9.126;2023-05-27T06:01:31;16.10;81.20
21944;DHT22;11136;48.778;9.126;2023-05-27T06:03:56;16.30;81.40
21944;DHT22;11136;48.778;9.126;2023-05-27T06:06:23;16.10;81.40
21944;DHT22;11136;48.778;9.126;2023-05-27T06:08:49;16.20;81.60
21944;DHT22;11136;48.778;9.126;2023-05-27T06:11:14;16.20;81.70
21944;DHT22;11136;48.778;9.126;2023-05-27T06:13:41;16.20;81.70
21944;DHT22;11136;48.778;9.126;2023-05-27T06:16:07;16.30;81.80
21944;DHT22;11136;48.778;9.126;2023-05-27T06:18:32;16.30;81.80
21944;DHT22;11136;48.778;9.126;2023-05-27T06:20:58;16.40;81.90
21944;DHT22;11136;48.778;9.126;2023-05-27T06:23:24;16.40;81.60
21944;DHT22;11136;48.778;9.126;2023-05-27T06:25:49;16.50;81.30
21944;DHT22;11136;48.778;9.126;2023-05-27T06:28:15;16.50;81.30
21944;DHT22;11136;48.778;9.126;2023-05-27T06:30:41;16.50;81.20
21944;DHT22;11136;48.778;9.126;2023-05-27T06:33:08;16.60;81.10
21944;DHT22;11136;48.778;9.126;2023-05-27T06:35:33;16.70;80.90
21944;DHT22;11136;48.778;9.126;2023-05-27T06:37:59;16.70;80.70
21944;DHT22;11136;48.778;9.126;2023-05-27T06:40:25;16.80;80.20
21944;DHT22;11136;48.778;9.126;2023-05-27T06:42:50;16.80;80.00
21944;DHT22;11136;48.778;9.126;2023-05-27T06:45:16;16.80;79.90
21944;DHT22;11136;48.778;9.126;2023-05-27T06:47:41;16.90;79.80
21944;DHT22;11136;48.778;9.126;2023-05-27T06:50:07;17.00;79.70
21944;DHT22;11136;48.778;9.126;2023-05-27T06:52:33;17.00;79.40
21944;DHT22;11136;48.778;9.126;2023-05-27T06:54:59;17.00;79.30
21944;DHT22;11136;48.778;9.126;2023-05-27T06:57:24;17.10;79.30
21944;DHT22;11136;48.778;9.126;2023-05-27T06:59:50;17.10;79.40
21944;DHT22;11136;48.778;9.126;2023-05-27T07:02:15;17.20;79.20
21944;DHT22;11136;48.778;9.126;2023-05-27T07:04:41;17.20;79.00
21944;DHT22;11136;48.778;9.126;2023-05-27T07:07:07;17.30;79.10
21944;DHT22;11136;48.778;9.126;2023-05-27T07:09:32;17.30;78.80
21944;DHT22;11136;48.778;9.126;2023-05-27T07:11:59;17.40;78.70
21944;DHT22;11136;48.778;9.126;2023-05-27T07:14:25;17.40;78.40
21944;DHT22;11136;48.778;9.126;2023-05-27T07:16:51;17.40;78.30
21944;DHT22;11136;48.778;9.126;2023-05-27T07:19:17;17.50;78.40
21944;DHT22;11136;48.778;9.126;2023-05-27T07:21:43;17.60;78.30
21944;DHT22;11136;48.778;9.126;2023-05-27T07:24:08;17.60;78.20
21944;DHT22;11136;48.778;9.126;2023-05-27T07:26:34;17.60;78.10
21944;DHT22;11136;48.778;9.126;2023-05-27T07:29:00;17.70;77.90
21944;DHT22;11136;48.778;9.126;2023-05-27T07:31:27;17.80;77.90
21944;DHT22;11136;48.778;9.126;2023-05-27T07:33:53;17.80;77.90
21944;DHT22;11136;48.778;9.126;2023-05-27T07:36:19;17.90;77.80
21944;DHT22;11136;48.778;9.126;2023-05-27T07:38:45;17.90;77.80
21944;DHT22;11136;48.778;9.126;2023-05-27T07:41:11;18.00;77.70
21944;DHT22;11136;48.778;9.126;2023-05-27T07:43:37;18.10;77.60
21944;DHT22;11136;48.778;9.126;2023-05-27T07:46:03;18.10;77.50
21944;DHT22;11136;48.778;9.126;2023-05-27T07:48:29;18.20;77.40
21944;DHT22;11136;48.778;9.126;2023-05-27T07:50:55;18.30;77.20
21944;DHT22;11136;48.778;9.126;2023-05-27T07:53:21;18.30;77.10
21944;DHT22;11136;48.778;9.126;2023-05-27T07:55:47;18.30;76.90
21944;DHT22;11136;48.778;9.126;2023-05-27T07:58:14;18.40;76.80
21944;DHT22;11136;48.778;9.126;2023-05-27T08:00:40;18.50;76.80
21944;DHT22;11136;48.778;9.126;2023-05-27T08:03:05;18.70;76.80
21944;DHT22;11136;48.778;9.126;2023-05-27T08:05:31;18.60;76.20
21944;DHT22;11136;48.778;9.126;2023-05-27T08:07:58;18.70;75.90
21944;DHT22;11136;48.778;9.126;2023-05-27T08:10:24;18.70;76.00
21944;DHT22;11136;48.778;9.126;2023-05-27T08:12:49;18.80;76.00
21944;DHT22;11136;48.778;9.126;2023-05-27T08:15:15;18.90;75.80
21944;DHT22;11136;48.778;9.126;2023-05-27T08:17:41;18.90;75.70
21944;DHT22;11136;48.778;9.126;2023-05-27T08:20:08;19.00;75.60
21944;DHT22;11136;48.778;9.126;2023-05-27T08:22:34;19.10;75.50
21944;DHT22;11136;48.778;9.126;2023-05-27T08:25:01;19.10;75.20
21944;DHT22;11136;48.778;9.126;2023-05-27T08:27:44;19.20;75.10
21944;DHT22;11136;48.778;9.126;2023-05-27T08:30:11;19.30;74.80
21944;DHT22;11136;48.778;9.126;2023-05-27T08:32:37;19.40;75.00
21944;DHT22;11136;48.778;9.126;2023-05-27T08:35:03;19.40;74.70
21944;DHT22;11136;48.778;9.126;2023-05-27T08:37:28;19.60;74.50
21944;DHT22;11136;48.778;9.126;2023-05-27T08:39:54;19.80;74.50
21944;DHT22;11136;48.778;9.126;2023-05-27T08:42:20;20.10;74.50
21944;DHT22;11136;48.778;9.126;2023-05-27T08:44:46;20.60;74.20
21944;DHT22;11136;48.778;9.126;2023-05-27T08:47:12;21.00;73.10
21944;DHT22;11136;48.778;9.126;2023-05-27T08:49:39;21.50;72.20
21944;DHT22;11136;48.778;9.126;2023-05-27T08:52:06;21.90;71.40
21944;DHT22;11136;48.778;9.126;2023-05-27T08:54:34;22.20;70.70
21944;DHT22;11136;48.778;9.126;2023-05-27T08:57:04;22.40;69.40
21944;DHT22;11136;48.778;9.126;2023-05-27T08:59:32;22.40;68.20
21944;DHT22;11136;48.778;9.126;2023-05-27T09:01:58;22.40;67.70
21944;DHT22;11136;48.778;9.126;2023-05-27T09:04:24;22.30;67.30
21944;DHT22;11136;48.778;9.126;2023-05-27T09:06:50;22.10;66.80
21944;DHT22;11136;48.778;9.126;2023-05-27T09:09:18;22.00;67.00
21944;DHT22;11136;48.778;9.126;2023-05-27T09:11:44;21.90;67.00
21944;DHT22;11136;48.778;9.126;2023-05-27T09:14:30;21.80;66.90
21944;DHT22;11136;48.778;9.126;2023-05-27T09:16:56;21.80;67.10
21944;DHT22;11136;48.778;9.126;2023-05-27T09:19:22;21.80;67.50
21944;DHT22;11136;48.778;9.126;2023-05-27T09:21:51;21.90;67.40
21944;DHT22;11136;48.778;9.126;2023-05-27T09:24:18;22.10;67.50
21944;DHT22;11136;48.778;9.126;2023-05-27T09:26:43;22.50;67.70
21944;DHT22;11136;48.778;9.126;2023-05-27T09:29:09;22.70;67.20
21944;DHT22;11136;48.778;9.126;2023-05-27T09:31:41;23.00;67.00
21944;DHT22;11136;48.778;9.126;2023-05-27T09:34:15;23.40;66.80
21944;DHT22;11136;48.778;9.126;2023-05-27T09:36:51;23.70;66.00
21944;DHT22;11136;48.778;9.126;2023-05-27T09:39:18;24.00;64.40
21944;DHT22;11136;48.778;9.126;2023-05-27T09:43:14;24.30;62.80
21944;DHT22;11136;48.778;9.126;2023-05-27T09:45:40;24.30;62.90
21944;DHT22;11136;48.778;9.126;2023-05-27T09:48:06;24.20;62.90
21944;DHT22;11136;48.778;9.126;2023-05-27T09:50:34;24.10;62.00
21944;DHT22;11136;48.778;9.126;2023-05-27T09:53:00;24.00;62.40
21944;DHT22;11136;48.778;9.126;2023-05-27T09:55:28;23.80;62.90
21944;DHT22;11136;48.778;9.126;2023-05-27T09:57:54;23.70;63.30
21944;DHT22;11136;48.778;9.126;2023-05-27T10:00:21;23.60;63.00
21944;DHT22;11136;48.778;9.126;2023-05-27T10:02:48;23.50;63.10
21944;DHT22;11136;48.778;9.126;2023-05-27T10:05:16;23.50;63.10
21944;DHT22;11136;48.778;9.126;2023-05-27T10:07:43;23.40;63.20
21944;DHT22;11136;48.778;9.126;2023-05-27T10:10:15;23.30;63.20
21944;DHT22;11136;48.778;9.126;2023-05-27T10:12:46;23.30;63.10
21944;DHT22;11136;48.778;9.126;2023-05-27T10:15:29;23.30;63.10
21944;DHT22;11136;48.778;9.126;2023-05-27T10:17:57;23.30;63.70
21944;DHT22;11136;48.778;9.126;2023-05-27T10:20:33;23.30;64.30
21944;DHT22;11136;48.778;9.126;2023-05-27T10:23:15;23.30;63.70
21944;DHT22;11136;48.778;9.126;2023-05-27T10:25:46;23.30;64.20
21944;DHT22;11136;48.778;9.126;2023-05-27T10:28:39;23.40;63.50
21944;DHT22;11136;48.778;9.126;2023-05-27T10:31:10;23.40;63.70
21944;DHT22;11136;48.778;9.126;2023-05-27T10:33:38;23.50;63.40
21944;DHT22;11136;48.778;9.126;2023-05-27T10:38:35;23.50;63.90
21944;DHT22;11136;48.778;9.126;2023-05-27T10:41:02;23.50;64.00
21944;DHT22;11136;48.778;9.126;2023-05-27T10:43:29;23.60;64.10
21944;DHT22;11136;48.778;9.126;2023-05-27T10:46:03;23.60;63.70
21944;DHT22;11136;48.778;9.126;2023-05-27T10:48:29;23.70;63.30
21944;DHT22;11136;48.778;9.126;2023-05-27T10:50:57;23.80;63.30
21944;DHT22;11136;48.778;9.126;2023-05-27T10:53:28;23.90;63.20
21944;DHT22;11136;48.778;9.126;2023-05-27T10:55:57;23.90;62.90
21944;DHT22;11136;48.778;9.126;2023-05-27T10:58:24;24.00;63.10
21944;DHT22;11136;48.778;9.126;2023-05-27T11:00:51;24.10;62.80
21944;DHT22;11136;48.778;9.126;2023-05-27T11:03:25;24.20;62.00
21944;DHT22;11136;48.778;9.126;2023-05-27T11:06:04;24.30;61.90
21944;DHT22;11136;48.778;9.126;2023-05-27T11:08:31;24.40;61.50
21944;DHT22;11136;48.778;9.126;2023-05-27T11:11:06;24.40;61.20
21944;DHT22;11136;48.778;9.126;2023-05-27T11:13:33;24.50;61.10
21944;DHT22;11136;48.778;9.126;2023-05-27T11:15:59;24.50;61.00
21944;DHT22;11136;48.778;9.126;2023-05-27T11:18:43;24.60;60.60
21944;DHT22;11136;48.778;9.126;2023-05-27T11:21:10;24.60;60.10
21944;DHT22;11136;48.778;9.126;2023-05-27T11:23:47;24.60;59.80
21944;DHT22;11136;48.778;9.126;2023-05-27T11:26:14;24.70;59.70
21944;DHT22;11136;48.778;9.126;2023-05-27T11:29:01;24.70;59.20
21944;DHT22;11136;48.778;9.126;2023-05-27T11:31:28;24.80;59.10
21944;DHT22;11136;48.778;9.126;2023-05-27T11:33:54;24.90;59.10
21944;DHT22;11136;48.778;9.126;2023-05-27T11:36:20;25.00;58.50
21944;DHT22;11136;48.778;9.126;2023-05-27T11:38:59;25.00;58.30
21944;DHT22;11136;48.778;9.126;2023-05-27T11:41:29;25.10;57.70
21944;DHT22;11136;48.778;9.126;2023-05-27T11:43:57;25.20;57.60
21944;DHT22;11136;48.778;9.126;2023-05-27T11:46:24;25.20;57.30
21944;DHT22;11136;48.778;9.126;2023-05-27T11:48:58;25.40;57.40
21944;DHT22;11136;48.778;9.126;2023-05-27T11:51:27;25.30;57.00
21944;DHT22;11136;48.778;9.126;2023-05-27T11:53:54;25.40;56.90
21944;DHT22;11136;48.778;9.126;2023-05-27T11:56:20;25.50;57.00
21944;DHT22;11136;48.778;9.126;2023-05-27T11:58:47;25.50;56.60
21944;DHT22;11136;48.778;9.126;2023-05-27T12:01:12;25.60;56.40
21944;DHT22;11136;48.778;9.126;2023-05-27T12:03:38;25.60;56.40
21944;DHT22;11136;48.778;9.126;2023-05-27T12:06:04;25.70;56.00
21944;DHT22;11136;48.778;9.126;2023-05-27T12:08:30;25.80;55.90
21944;DHT22;11136;48.778;9.126;2023-05-27T12:10:55;25.80;55.50
21944;DHT22;11136;48.778;9.126;2023-05-27T12:13:21;25.90;55.40
21944;DHT22;11136;48.778;9.126;2023-05-27T12:15:47;25.90;55.00
21944;DHT22;11136;48.778;9.126;2023-05-27T12:18:13;25.90;54.80
21944;DHT22;11136;48.778;9.126;2023-05-27T12:20:39;25.90;54.70
21944;DHT22;11136;48.778;9.126;2023-05-27T12:23:04;25.90;54.80
21944;DHT22;11136;48.778;9.126;2023-05-27T12:25:30;25.90;54.70
21944;DHT22;11136;48.778;9.126;2023-05-27T12:27:56;25.90;54.00
21944;DHT22;11136;48.778;9.126;2023-05-27T12:30:22;25.80;53.90
21944;DHT22;11136;48.778;9.126;2023-05-27T12:32:47;25.80;54.10
21944;DHT22;11136;48.778;9.126;2023-05-27T12:35:13;25.80;54.00
21944;DHT22;11136;48.778;9.126;2023-05-27T12:37:39;25.80;53.70
21944;DHT22;11136;48.778;9.126;2023-05-27T12:40:06;25.70;53.90
21944;DHT22;11136;48.778;9.126;2023-05-27T12:42:35;25.70;54.00
21944;DHT22;11136;48.778;9.126;2023-05-27T12:45:00;25.70;54.30
21944;DHT22;11136;48.778;9.126;2023-05-27T12:47:26;25.60;53.90
21944;DHT22;11136;48.778;9.126;2023-05-27T12:49:51;25.60;54.20
21944;DHT22;11136;48.778;9.126;2023-05-27T12:52:17;25.60;54.60
21944;DHT22;11136;48.778;9.126;2023-05-27T12:54:43;25.60;54.50
21944;DHT22;11136;48.778;9.126;2023-05-27T12:57:08;25.60;54.20
21944;DHT22;11136;48.778;9.126;2023-05-27T12:59:34;25.70;54.30
21944;DHT22;11136;48.778;9.126;2023-05-27T13:02:00;25.60;54.20
21944;DHT22;11136;48.778;9.126;2023-05-27T13:04:26;25.70;54.60
21944;DHT22;11136;48.778;9.126;2023-05-27T13:06:51;25.60;54.40
21944;DHT22;11136;48.778;9.126;2023-05-27T13:09:17;25.60;54.60
21944;DHT22;11136;48.778;9.126;2023-05-27T13:11:44;25.60;54.40
21944;DHT22;11136;48.778;9.126;2023-05-27T13:14:09;25.60;54.80
21944;DHT22;11136;48.778;9.126;2023-05-27T13:16:35;25.70;54.80
21944;DHT22;11136;48.778;9.126;2023-05-27T13:19:01;25.60;54.70
21944;DHT22;11136;48.778;9.126;2023-05-27T13:21:27;25.60;54.80
21944;DHT22;11136;48.778;9.126;2023-05-27T13:23:53;25.60;54.80
21944;DHT22;11136;48.778;9.126;2023-05-27T13:26:19;25.70;54.80
21944;DHT22;11136;48.778;9.126;2023-05-27T13:28:46;25.60;54.60
21944;DHT22;11136;48.778;9.126;2023-05-27T13:31:11;25.60;54.50
21944;DHT22;11136;48.778;9.126;2023-05-27T13:33:37;25.60;54.60
21944;DHT22;11136;48.778;9.126;2023-05-27T13:36:04;25.60;54.80
21944;DHT22;11136;48.778;9.126;2023-05-27T13:38:29;25.60;54.70
21944;DHT22;11136;48.778;9.126;2023-05-27T13:40:55;25.70;54.90
21944;DHT22;11136;48.778;9.126;2023-05-27T13:43:20;25.60;54.60
21944;DHT22;11136;48.778;9.126;2023-05-27T13:45:46;25.70;54.50
21944;DHT22;11136;48.778;9.126;2023-05-27T13:48:12;25.70;54.40
21944;DHT22;11136;48.778;9.126;2023-05-27T13:50:37;25.70;54.20
21944;DHT22;11136;48.778;9.126;2023-05-27T13:53:03;25.70;53.80
21944;DHT22;11136;48.778;9.126;2023-05-27T13:55:30;25.70;53.90
21944;DHT22;11136;48.778;9.126;2023-05-27T13:57:55;25.80;53.90
21944;DHT22;11136;48.778;9.126;2023-05-27T14:00:21;25.80;53.90
21944;DHT22;11136;48.778;9.126;2023-05-27T14:02:47;25.80;54.10
21944;DHT22;11136;48.778;9.126;2023-05-27T14:05:13;25.80;53.60
21944;DHT22;11136;48.778;9.126;2023-05-27T14:07:42;25.80;54.20
21944;DHT22;11136;48.778;9.126;2023-05-27T14:10:09;25.80;53.50
21944;DHT22;11136;48.778;9.126;2023-05-27T14:12:34;25.80;53.60
21944;DHT22;11136;48.778;9.126;2023-05-27T14:15:00;25.80;53.30
21944;DHT22;11136;48.778;9.126;2023-05-27T14:17:25;25.80;53.10
21944;DHT22;11136;48.778;9.126;2023-05-27T14:19:52;25.90;53.10
21944;DHT22;11136;48.778;9.126;2023-05-27T14:22:17;25.90;52.90
21944;DHT22;11136;48.778;9.126;2023-05-27T14:24:43;26.00;52.90
21944;DHT22;11136;48.778;9.126;2023-05-27T14:27:08;26.00;52.60
21944;DHT22;11136;48.778;9.126;2023-05-27T14:29:34;26.00;52.70
21944;DHT22;11136;48.778;9.126;2023-05-27T14:32:00;26.10;52.50
21944;DHT22;11136;48.778;9.126;2023-05-27T14:34:25;26.10;52.40
21944;DHT22;11136;48.778;9.126;2023-05-27T14:36:51;26.10;52.10
21944;DHT22;11136;48.778;9.126;2023-05-27T14:39:16;26.20;52.10
21944;DHT22;11136;48.778;9.126;2023-05-27T14:41:42;26.20;51.70
21944;DHT22;11136;48.778;9.126;2023-05-27T14:44:08;26.20;51.30
21944;DHT22;11136;48.778;9.126;2023-05-27T14:46:34;26.30;51.30
21944;DHT22;11136;48.778;9.126;2023-05-27T14:48:59;26.30;51.10
21944;DHT22;11136;48.778;9.126;2023-05-27T14:51:25;26.40;50.30
21944;DHT22;11136;48.778;9.126;2023-05-27T14:53:50;26.40;50.30
21944;DHT22;11136;48.778;9.126;2023-05-27T14:56:16;26.50;50.00
21944;DHT22;11136;48.778;9.126;2023-05-27T14:58:41;26.50;49.90
21944;DHT22;11136;48.778;9.126;2023-05-27T15:01:08;26.60;50.20
21944;DHT22;11136;48.778;9.126;2023-05-27T15:03:36;26.70;49.70
21944;DHT22;11136;48.778;9.126;2023-05-27T15:06:02;26.80;48.50
21944;DHT22;11136;48.778;9.126;2023-05-27T15:08:27;26.90;47.20
21944;DHT22;11136;48.778;9.126;2023-05-27T15:10:53;27.00;46.60
21944;DHT22;11136;48.778;9.126;2023-05-27T15:13:19;27.10;45.80
21944;DHT22;11136;48.778;9.126;2023-05-27T15:15:47;27.10;45.70
21944;DHT22;11136;48.778;9.126;2023-05-27T15:18:13;27.30;46.10
21944;DHT22;11136;48.778;9.126;2023-05-27T15:20:38;27.40;46.40
21944;DHT22;11136;48.778;9.126;2023-05-27T15:23:04;27.50;46.20
21944;DHT22;11136;48.778;9.126;2023-05-27T15:25:30;27.60;46.30
21944;DHT22;11136;48.778;9.126;2023-05-27T15:27:55;27.70;45.90
21944;DHT22;11136;48.778;9.126;2023-05-27T15:30:21;27.70;45.60
21944;DHT22;11136;48.778;9.126;2023-05-27T15:32:47;27.80;45.60